AirNav   Air Wisconsin Up To $57,000 Bonus
 
 770 users online  

02TE Baylor Medical Center Heliport
Waxahachie, Texas, USA

GOING TO WAXAHACHIE?


FAA INFORMATION EFFECTIVE 20 MAY 2021

Location

FAA Identifier: 02TE
Lat/Long: 32-23-43.3700N 096-51-51.1200W
32-23.722833N 096-51.852000W
32.3953806,-96.8642000
(estimated)
Elevation: 632 ft. / 193 m (estimated)
Variation: 04E (2015)
From city: 1 mile NW of WAXAHACHIE, TX
Time zone: UTC -5 (UTC -6 during Standard Time)
Zip code: 75165

Heliport Operations

Heliport use: Private use, MEDICAL.
Activation date: 11/2000
Control tower: no
ARTCC: FORT WORTH CENTER
FSS: FORT WORTH FLIGHT SERVICE STATION
NOTAMs facility: FDC (NOTAM-D service available)
Attendance: UNATNDD
Wind indicator: yes
Segmented circle: no
Lights: SS-SR

Heliport Communications

WX AWOS-3 at JWY (4 nm NW): 119.575 (972-937-4747)
WX AWOS-3 at LNC (13 nm NE): 118.975 (972-227-0471)
WX ASOS at RBD (17 nm N): PHONE 214-330-5317
WX ASOS at GKY (20 nm NW): 127.375 (817-557-0251)

Nearby radio navigation aids

VOR radial/distance  VOR name  Freq  Var
CVEr170/29.8COWBOY VOR/DME116.2006E
TTTr157/29.8MAVERICK VOR/DME113.1006E
FUZr146/33.7RANGER VORTAC115.7006E
CQYr285/35.1CEDAR CREEK VORTAC114.8006E

 
NDB name  Hdg/Dist  Freq  Var  ID
POWELL306/29.834406ECGQ -.-. --. --.-
MESQUITE211/30.124803EPQF .--. --.- ..-.
CORSICANA307/32.539606ECRS -.-. .-. ...
TRAVIS229/38.026006EAVZ .- ...- --..

Heliport Services

Runway Information

Helipad H1

Dimensions: 40 x 40 ft. / 12 x 12 m
Surface: concrete
Runway edge lights: PERI
Latitude: 32-23.722833N
Longitude: 096-51.852000W
Elevation: 560.0 ft.
Traffic pattern: leftleft

Heliport Ownership and Management from official FAA records

Ownership: Privately-owned
Owner: BAYLOR MEDICAL CENTER-ELLIS COUNTY
1405 W. JEFFERSON
WAXAHACHIE, TX 76165
Phone 972-923-7000
Manager: RON KASOWSKI
1405 W. JEFFERSON
WAXAHACHIE, TX 76165
Phone (469) 843-4023
PRESIDENT.

Additional Remarks

A52-H1 45 FT BLDG 100 FT NW OF HELIPAD.
FOR CD CTC REGIONAL APCH AT 972-615-2799.

Instrument Procedures

There are no published instrument procedures at 02TE.

Some nearby airports with instrument procedures:

KJWY - Mid-Way Regional Airport (4 nm NW)
F41 - Ennis Municipal Airport (11 nm E)
KLNC - Lancaster Regional Airport (13 nm NE)
KRBD - Dallas Executive Airport (17 nm N)
KGKY - Arlington Municipal Airport (20 nm NW)
 
Loc | Ops | Rwys | IFR | FBO | Links
Com | Nav | Svcs | Stats | Notes

City of Fort Worth
 
Area around 02TE (Baylor Medical Center Heliport)
 
Road maps at: MapQuest Bing Google
 
Aerial photo
WARNING: Photo may not be current or correct
Aerial photo of 02TE (Baylor Medical Center Heliport)
Taken in the Spring of 2005

Do you have a better or more recent aerial photo of Baylor Medical Center Heliport that you would like to share? If so, please send us your photo.

 
Sectional chart

 
Airport distance calculator
Flying to Baylor Medical Center Heliport? Find the distance to fly.

From to 02TE

Sunrise and sunset
Times for 12-Jun-2021
 Local
(UTC-5)
 Zulu
(UTC)
Morning civil twilight05:5210:52
Sunrise06:2111:21
Sunset20:3401:34
Evening civil twilight21:0202:02

Current date and time
Zulu (UTC)  13-Jun-2021 03:31:16
Local (UTC-5)  12-Jun-2021 22:31:16
 
METAR
KJWY 
4nm NW 
130315Z AUTO 00000KT 10SM CLR 27/24 A2994 RMK AO2 T02660240
KLNC 
13nm NE 
130315Z AUTO 00000KT 5SM HZ CLR 27/24 A2993 RMK AO2 T02670240
KRBD 
17nm N 
130253Z AUTO 09004KT 10SM CLR 29/23 A2992 RMK AO2 SLP121 T02940233 53009
TAF
KGKY 
20nm NW 
122104Z 1221/1318 16005KT P6SM SCT040 FM131100 02006KT P6SM SCT250
NOTAMs
Click for the latest NOTAMs
NOTAMs are issued by the DoD/FAA and will open in a separate window not controlled by AirNav.

 

 
 

Would you like to see your business listed on this page?

 If your business provides an interesting product or service to pilots, flight crews, aircraft, or users of the Baylor Medical Center Heliport, you should consider listing it here.  To start the listing process, click on the button below
 
Add a business
 

Other Pages about Baylor Medical Center Heliport

Update a link
 
Copyright © AirNav, LLC. All rights reserved. Privacy Policy  Contact